createdAt,value
2022-10-30T00:00:25.498Z,99870.34
2022-10-30T00:02:29.069Z,99870.34
2022-10-30T00:04:32.908Z,99851.75
2022-10-30T00:06:36.529Z,99863.38
2022-10-30T00:08:40.136Z,99864.22
2022-10-30T00:10:45.685Z,99867.97
2022-10-30T00:12:49.333Z,99860.97
2022-10-30T00:14:53.058Z,99860.97
2022-10-30T00:16:58.047Z,99867.16
2022-10-30T00:19:01.730Z,99860.72
2022-10-30T00:21:10.456Z,99861.69
2022-10-30T00:23:14.178Z,99869.53
2022-10-30T00:25:17.941Z,99867.00
2022-10-30T00:27:21.669Z,99866.03
2022-10-30T00:29:26.522Z,99871.22
2022-10-30T00:31:30.176Z,99877.34
2022-10-30T00:33:35.238Z,99889.81
2022-10-30T00:35:40.109Z,99888.94
2022-10-30T00:37:43.633Z,99882.94
2022-10-30T00:39:47.248Z,99886.56
2022-10-30T00:41:53.469Z,99882.22
2022-10-30T00:43:57.192Z,99885.88
2022-10-30T00:46:04.588Z,99884.06
2022-10-30T00:48:08.210Z,99879.56
2022-10-30T00:50:18.266Z,99876.91
2022-10-30T00:52:24.737Z,99871.59
2022-10-30T00:54:28.609Z,99877.78
2022-10-30T00:56:33.225Z,99882.09
2022-10-30T00:58:41.638Z,99889.09
2022-10-30T01:00:51.019Z,99879.31
2022-10-30T01:02:55.695Z,99872.19
2022-10-30T01:04:59.618Z,99883.50
2022-10-30T01:07:12.119Z,99871.34
2022-10-30T01:09:16.406Z,99874.00
2022-10-30T01:11:20.149Z,99874.13
2022-10-30T01:13:25.115Z,99866.28
2022-10-30T01:15:34.856Z,99859.31
2022-10-30T01:18:04.701Z,99854.97
2022-10-30T01:20:34.514Z,99857.75
2022-10-30T01:22:57.416Z,99853.28
2022-10-30T01:25:13.575Z,99853.28
2022-10-30T01:27:38.814Z,99859.41
2022-10-30T01:29:57.023Z,99860.28
2022-10-30T01:32:20.820Z,99866.28
2022-10-30T01:34:35.130Z,99857.34
2022-10-30T01:36:43.347Z,99859.03
2022-10-30T01:38:52.979Z,99852.75
2022-10-30T01:40:56.712Z,99847.28
2022-10-30T01:43:01.812Z,99850.78
2022-10-30T01:45:08.880Z,99854.28
2022-10-30T01:47:30.192Z,99861.28
2022-10-30T01:49:49.004Z,99864.22
2022-10-30T01:52:00.122Z,99856.38
2022-10-30T01:54:16.576Z,99849.09
2022-10-30T01:56:30.768Z,99848.13
2022-10-30T01:58:46.278Z,99854.41
2022-10-30T02:00:54.948Z,99851.75
2022-10-30T02:02:59.494Z,99846.56
2022-10-30T02:05:03.915Z,99856.38
2022-10-30T02:07:07.923Z,99857.22
2022-10-30T02:09:19.489Z,99847.44
2022-10-30T02:11:28.361Z,99849.09
2022-10-30T02:13:32.577Z,99857.78
2022-10-30T02:15:36.944Z,99853.03
2022-10-30T02:17:41.676Z,99854.56
2022-10-30T02:19:45.139Z,99856.41
2022-10-30T02:21:50.454Z,99848.56
2022-10-30T02:23:55.383Z,99845.06
2022-10-30T02:25:59.041Z,99846.06
2022-10-30T02:28:03.900Z,99840.88
2022-10-30T02:30:09.509Z,99826.72
2022-10-30T02:32:13.144Z,99841.69
2022-10-30T02:34:16.642Z,99832.91
2022-10-30T02:36:20.501Z,99845.78
2022-10-30T02:38:26.358Z,99821.72
2022-10-30T02:40:30.000Z,99823.41
2022-10-30T02:42:33.854Z,99819.63
2022-10-30T02:44:37.511Z,99831.91
2022-10-30T02:46:42.331Z,99819.50
2022-10-30T02:48:46.513Z,99821.19
2022-10-30T02:50:51.609Z,99817.53
2022-10-30T02:52:55.643Z,99820.19
2022-10-30T02:55:00.793Z,99809.28
2022-10-30T02:57:05.443Z,99813.47
2022-10-30T02:59:09.196Z,99806.50
2022-10-30T03:01:15.603Z,99816.13
2022-10-30T03:03:23.047Z,99815.28
2022-10-30T03:05:27.928Z,99812.50
2022-10-30T03:07:31.547Z,99815.00
2022-10-30T03:09:35.140Z,99817.81
2022-10-30T03:11:40.961Z,99825.78
2022-10-30T03:13:45.473Z,99823.28
2022-10-30T03:15:48.928Z,99825.09
2022-10-30T03:17:52.996Z,99828.59
2022-10-30T03:19:56.681Z,99822.31
2022-10-30T03:22:00.249Z,99832.94
2022-10-30T03:24:03.865Z,99827.63
2022-10-30T03:26:07.745Z,99827.75
2022-10-30T03:28:26.462Z,99825.66
2022-10-30T03:30:30.198Z,99822.72
2022-10-30T03:32:39.678Z,99822.59
2022-10-30T03:34:43.198Z,99822.59
2022-10-30T03:36:46.854Z,99817.41
2022-10-30T03:38:50.399Z,99822.44
2022-10-30T03:40:55.896Z,99818.09
2022-10-30T03:43:00.650Z,99822.59
2022-10-30T03:45:06.379Z,99819.94
2022-10-30T03:49:20.563Z,99820.91
2022-10-30T03:51:24.422Z,99827.19
2022-10-30T03:53:28.785Z,99819.22
2022-10-30T03:55:32.059Z,99815.59
2022-10-30T03:57:38.278Z,99815.59
2022-10-30T03:59:52.217Z,99811.09
2022-10-30T04:02:15.592Z,99797.94
2022-10-30T04:04:19.176Z,99800.47
2022-10-30T04:06:22.537Z,99796.97
2022-10-30T04:08:25.983Z,99790.41
2022-10-30T04:10:29.555Z,99788.47
2022-10-30T04:12:35.219Z,99785.66
2022-10-30T04:14:38.543Z,99786.34
2022-10-30T04:16:41.808Z,99772.06
2022-10-30T04:18:46.566Z,99775.31
2022-10-30T04:20:49.912Z,99774.31
2022-10-30T04:22:58.033Z,99770.00
2022-10-30T04:25:01.556Z,99765.50
2022-10-30T04:27:09.633Z,99751.22
2022-10-30T04:29:13.947Z,99766.91
2022-10-30T04:31:17.533Z,99757.94
2022-10-30T04:33:21.143Z,99766.59
2022-10-30T04:35:31.084Z,99760.47
2022-10-30T04:37:35.311Z,99765.78
2022-10-30T04:39:42.380Z,99762.25
2022-10-30T04:41:53.662Z,99771.78
2022-10-30T04:44:03.293Z,99781.31
2022-10-30T04:46:08.833Z,99792.66
2022-10-30T04:48:13.885Z,99805.97
2022-10-30T04:50:18.728Z,99786.63
2022-10-30T04:52:23.649Z,99772.78
2022-10-30T04:54:28.830Z,99774.16
2022-10-30T04:56:33.571Z,99775.03
2022-10-30T04:58:37.388Z,99775.84
2022-10-30T05:00:43.133Z,99779.34
2022-10-30T05:02:51.195Z,99780.00
2022-10-30T05:04:54.960Z,99779.75
2022-10-30T05:06:59.523Z,99778.59
2022-10-30T05:09:05.137Z,99757.91
2022-10-30T05:11:12.201Z,99752.44
2022-10-30T05:13:15.953Z,99755.63
2022-10-30T05:15:19.687Z,99757.13
2022-10-30T05:17:24.234Z,99774.56
2022-10-30T05:19:28.004Z,99774.53
2022-10-30T05:21:33.613Z,99771.69
2022-10-30T05:23:37.207Z,99778.53
2022-10-30T05:25:43.947Z,99792.06
2022-10-30T05:27:49.177Z,99795.09
2022-10-30T05:29:55.638Z,99784.75
2022-10-30T05:31:59.372Z,99776.09
2022-10-30T05:34:14.120Z,99765.03
2022-10-30T05:36:18.356Z,99756.75
2022-10-30T05:38:22.044Z,99748.63
2022-10-30T05:40:27.392Z,99741.28
2022-10-30T05:42:32.396Z,99742.66
2022-10-30T05:44:59.673Z,99749.06
2022-10-30T05:47:02.624Z,99753.94
2022-10-30T05:49:09.687Z,99753.22
2022-10-30T05:51:13.576Z,99749.00
2022-10-30T05:53:21.938Z,99759.75
2022-10-30T05:55:26.140Z,99754.59
2022-10-30T05:57:46.747Z,99758.19
2022-10-30T05:59:50.406Z,99764.38
2022-10-30T06:01:53.862Z,99761.59
2022-10-30T06:03:57.514Z,99764.09
2022-10-30T06:06:01.174Z,99775.28
2022-10-30T06:08:06.179Z,99768.88
2022-10-30T06:10:11.344Z,99757.28
2022-10-30T06:12:24.920Z,99758.72
2022-10-30T06:15:05.637Z,99761.97
2022-10-30T06:17:09.606Z,99761.81
2022-10-30T06:19:36.965Z,99762.78
2022-10-30T06:21:59.071Z,99758.44
2022-10-30T06:24:14.156Z,99757.63
2022-10-30T06:26:28.496Z,99758.84
2022-10-30T06:28:37.636Z,99758.97
2022-10-30T06:30:43.089Z,99753.81
2022-10-30T06:32:47.174Z,99756.34
2022-10-30T06:34:50.749Z,99750.16
2022-10-30T06:36:55.219Z,99758.97
2022-10-30T06:38:59.163Z,99752.72
2022-10-30T06:41:07.974Z,99749.19
2022-10-30T06:43:34.750Z,99743.22
2022-10-30T06:45:43.467Z,99746.00
2022-10-30T06:47:47.028Z,99745.25
2022-10-30T06:49:50.763Z,99741.06
2022-10-30T06:51:54.498Z,99747.47
2022-10-30T06:53:58.576Z,99741.31
2022-10-30T06:56:17.448Z,99732.53
2022-10-30T06:58:40.245Z,99740.59
2022-10-30T07:03:30.287Z,99746.03
2022-10-30T07:05:33.893Z,99741.72
2022-10-30T07:07:37.953Z,99752.34
2022-10-30T07:09:42.617Z,99754.25
2022-10-30T07:11:46.829Z,99755.22
2022-10-30T07:14:01.705Z,99745.00
2022-10-30T07:16:25.192Z,99748.50
2022-10-30T07:18:28.612Z,99759.81
2022-10-30T07:20:36.192Z,99758.88
2022-10-30T07:22:40.660Z,99754.25
2022-10-30T07:24:45.224Z,99750.66
2022-10-30T07:27:00.055Z,99749.56
2022-10-30T07:29:11.677Z,99743.84
2022-10-30T07:31:29.003Z,99748.19
2022-10-30T07:34:07.792Z,99753.03
2022-10-30T07:36:18.385Z,99755.81
2022-10-30T07:38:49.168Z,99748.69
2022-10-30T07:41:04.680Z,99760.06
2022-10-30T07:43:25.962Z,99759.63
2022-10-30T07:45:38.197Z,99759.88
2022-10-30T07:48:10.676Z,99753.41
2022-10-30T07:50:25.328Z,99758.13
2022-10-30T07:52:33.812Z,99748.09
2022-10-30T07:54:38.165Z,99748.56
2022-10-30T07:57:04.389Z,99753.28
2022-10-30T07:59:26.613Z,99761.47
2022-10-30T08:01:53.191Z,99771.38
2022-10-30T08:04:14.210Z,99770.25
2022-10-30T08:06:23.225Z,99766.66
2022-10-30T08:08:30.068Z,99773.66
2022-10-30T08:10:54.563Z,99778.94
2022-10-30T08:12:58.107Z,99784.25
2022-10-30T08:15:02.347Z,99775.34
2022-10-30T08:17:07.879Z,99776.03
2022-10-30T08:19:11.471Z,99776.75
2022-10-30T08:21:15.127Z,99778.31
2022-10-30T08:23:31.598Z,99777.19
2022-10-30T08:25:40.026Z,99776.22
2022-10-30T08:27:52.907Z,99772.50
2022-10-30T08:29:56.593Z,99781.03
2022-10-30T08:32:00.289Z,99776.19
2022-10-30T08:34:23.395Z,99782.78
2022-10-30T08:36:31.940Z,99777.22
2022-10-30T08:38:37.873Z,99777.09
2022-10-30T08:41:09.522Z,99785.06
2022-10-30T08:43:20.860Z,99775.28
2022-10-30T08:45:29.880Z,99776.00
2022-10-30T08:47:43.744Z,99774.16
2022-10-30T08:49:47.459Z,99775.47
2022-10-30T08:51:55.905Z,99775.78
2022-10-30T08:54:01.544Z,99780.59
2022-10-30T08:56:05.690Z,99777.56
2022-10-30T08:58:21.622Z,99785.94
2022-10-30T09:00:25.903Z,99779.28
2022-10-30T09:02:56.101Z,99787.59
2022-10-30T09:05:32.223Z,99786.13
2022-10-30T09:07:58.325Z,99792.88
2022-10-30T09:10:32.049Z,99779.91
2022-10-30T09:12:37.259Z,99780.31
2022-10-30T09:14:40.996Z,99783.41
2022-10-30T09:16:46.051Z,99776.97
2022-10-30T09:18:52.086Z,99777.94
2022-10-30T09:20:56.290Z,99797.81
2022-10-30T09:23:01.509Z,99790.94
2022-10-30T09:25:06.404Z,99787.16
2022-10-30T09:27:30.316Z,99781.28
2022-10-30T09:29:36.978Z,99782.81
2022-10-30T09:31:44.556Z,99773.81
2022-10-30T09:33:51.952Z,99778.84
2022-10-30T09:36:22.086Z,99775.47
2022-10-30T09:38:26.496Z,99778.66
2022-10-30T09:40:55.582Z,99779.09
2022-10-30T09:43:09.419Z,99773.28
2022-10-30T09:45:55.481Z,99776.50
2022-10-30T09:48:13.144Z,99774.41
2022-10-30T09:50:48.304Z,99780.25
2022-10-30T09:53:02.189Z,99781.03
2022-10-30T09:55:29.292Z,99768.84
2022-10-30T09:57:41.136Z,99761.47
2022-10-30T09:59:59.763Z,99756.03
2022-10-30T10:02:17.521Z,99754.34
2022-10-30T10:04:29.265Z,99766.91
2022-10-30T10:06:58.722Z,99767.97
2022-10-30T10:09:18.468Z,99770.19
2022-10-30T10:11:43.216Z,99782.22
2022-10-30T10:13:51.892Z,99787.78
2022-10-30T10:16:01.257Z,99782.63
2022-10-30T10:18:08.625Z,99783.53
2022-10-30T10:20:18.590Z,99788.75
2022-10-30T10:22:23.844Z,99799.16
2022-10-30T10:24:31.122Z,99785.28
2022-10-30T10:26:48.854Z,99783.19
2022-10-30T10:29:13.837Z,99791.63
2022-10-30T10:31:29.076Z,99795.00
2022-10-30T10:33:57.800Z,99788.09
2022-10-30T10:36:15.220Z,99798.03
2022-10-30T10:38:31.404Z,99791.22
2022-10-30T10:40:49.330Z,99787.13
2022-10-30T10:43:06.781Z,99789.53
2022-10-30T10:45:27.115Z,99769.53
2022-10-30T10:47:53.248Z,99780.44
2022-10-30T10:50:15.312Z,99776.78
2022-10-30T10:52:23.173Z,99788.97
2022-10-30T10:54:33.196Z,99793.81
2022-10-30T10:56:41.211Z,99795.72
2022-10-30T10:58:52.647Z,99787.47
2022-10-30T11:00:59.707Z,99793.41
2022-10-30T11:03:11.663Z,99787.25
2022-10-30T11:05:26.197Z,99792.03
2022-10-30T11:07:33.971Z,99802.44
2022-10-30T11:09:37.706Z,99797.16
2022-10-30T11:11:43.739Z,99790.97
2022-10-30T11:13:47.607Z,99797.41
2022-10-30T11:15:59.920Z,99796.19
2022-10-30T11:18:08.678Z,99798.47
2022-10-30T11:20:19.518Z,99789.97
2022-10-30T11:22:28.787Z,99803.00
2022-10-30T11:24:34.416Z,99791.34
2022-10-30T11:26:37.991Z,99787.66
2022-10-30T11:28:51.510Z,99801.78
2022-10-30T11:31:19.166Z,99810.34
2022-10-30T11:33:30.884Z,99805.03
2022-10-30T11:35:43.954Z,99810.25
2022-10-30T11:37:49.137Z,99813.31
2022-10-30T11:40:04.290Z,99810.28
2022-10-30T11:42:14.923Z,99811.81
2022-10-30T11:44:19.273Z,99811.31
2022-10-30T11:46:25.327Z,99807.19
2022-10-30T11:48:34.471Z,99816.72
2022-10-30T11:50:38.327Z,99809.81
2022-10-30T11:52:45.544Z,99810.53
2022-10-30T11:54:54.048Z,99803.09
2022-10-30T11:56:59.812Z,99809.34
2022-10-30T11:59:05.606Z,99804.56
2022-10-30T12:01:17.137Z,99806.81
2022-10-30T12:03:32.219Z,99807.41
2022-10-30T12:05:43.613Z,99805.03
2022-10-30T12:07:48.688Z,99810.66
2022-10-30T12:09:53.351Z,99810.34
2022-10-30T12:12:03.041Z,99819.63
2022-10-30T12:14:16.969Z,99813.00
2022-10-30T12:16:21.131Z,99827.25
2022-10-30T12:20:40.594Z,99817.81
2022-10-30T12:22:49.793Z,99817.34
2022-10-30T12:25:05.385Z,99823.31
2022-10-30T12:27:19.807Z,99821.72
2022-10-30T12:30:02.734Z,99821.28
2022-10-30T12:32:07.151Z,99821.00
2022-10-30T12:34:35.496Z,99832.94
2022-10-30T12:36:48.690Z,99824.25
2022-10-30T12:38:55.858Z,99823.41
2022-10-30T12:41:14.338Z,99833.22
2022-10-30T12:43:24.627Z,99832.09
2022-10-30T12:45:34.090Z,99824.25
2022-10-30T12:47:47.046Z,99818.91
2022-10-30T12:49:58.971Z,99822.41
2022-10-30T12:52:12.969Z,99816.25
2022-10-30T12:54:26.005Z,99817.63
2022-10-30T12:56:35.537Z,99814.38
2022-10-30T12:58:46.243Z,99823.97
2022-10-30T13:00:56.496Z,99820.00
2022-10-30T13:03:05.659Z,99830.41
2022-10-30T13:05:22.890Z,99826.38
2022-10-30T13:07:33.072Z,99816.28
2022-10-30T13:09:42.308Z,99820.38
2022-10-30T13:11:53.130Z,99823.66
2022-10-30T13:14:02.129Z,99834.09
2022-10-30T13:16:12.362Z,99815.84
2022-10-30T13:18:18.799Z,99816.47
2022-10-30T13:20:23.402Z,99813.41
2022-10-30T13:22:38.591Z,99814.28
2022-10-30T13:24:52.037Z,99817.09
2022-10-30T13:27:01.750Z,99809.25
2022-10-30T13:29:16.493Z,99827.59
2022-10-30T13:31:29.701Z,99828.31
2022-10-30T13:33:36.653Z,99826.63
2022-10-30T13:35:48.769Z,99822.97
2022-10-30T13:38:02.211Z,99834.31
2022-10-30T13:40:17.934Z,99828.16
2022-10-30T13:42:38.385Z,99824.78
2022-10-30T13:44:53.253Z,99823.53
2022-10-30T13:47:12.967Z,99825.53
2022-10-30T13:49:34.619Z,99833.66
2022-10-30T13:51:44.252Z,99846.84
2022-10-30T13:53:57.382Z,99843.16
2022-10-30T13:56:01.210Z,99840.13
2022-10-30T13:58:10.345Z,99843.22
2022-10-30T14:00:20.439Z,99854.00
2022-10-30T14:02:38.780Z,99856.00
2022-10-30T14:04:51.503Z,99844.47
2022-10-30T14:07:15.719Z,99861.44
2022-10-30T14:09:30.536Z,99865.94
2022-10-30T14:11:34.224Z,99869.31
2022-10-30T14:13:52.628Z,99867.63
2022-10-30T14:16:01.568Z,99872.97
2022-10-30T14:18:27.013Z,99875.31
2022-10-30T14:20:30.728Z,99871.25
2022-10-30T14:22:36.149Z,99875.13
2022-10-30T14:24:46.833Z,99880.47
2022-10-30T14:26:53.964Z,99878.25
2022-10-30T14:28:58.227Z,99882.75
2022-10-30T14:31:06.397Z,99887.22
2022-10-30T14:33:43.522Z,99888.34
2022-10-30T14:35:50.151Z,99890.34
2022-10-30T14:37:58.488Z,99892.28
2022-10-30T14:40:36.221Z,99893.69
2022-10-30T14:42:49.585Z,99903.81
2022-10-30T14:45:12.371Z,99901.72
2022-10-30T14:47:39.785Z,99910.28
2022-10-30T14:49:48.308Z,99901.03
2022-10-30T14:52:05.054Z,99908.31
2022-10-30T14:54:18.737Z,99900.50
2022-10-30T14:56:34.796Z,99909.44
2022-10-30T14:58:39.719Z,99922.75
2022-10-30T15:00:44.966Z,99920.38
2022-10-30T15:02:56.506Z,99918.69
2022-10-30T15:05:24.711Z,99933.00
2022-10-30T15:07:35.772Z,99932.31
2022-10-30T15:09:55.065Z,99931.56
2022-10-30T15:12:14.107Z,99949.38
2022-10-30T15:14:39.942Z,99950.34
2022-10-30T15:16:52.533Z,99947.81
2022-10-30T15:19:01.995Z,99958.47
2022-10-30T15:21:08.140Z,99953.81
2022-10-30T15:23:20.386Z,99952.31
2022-10-30T15:25:26.155Z,99956.78
2022-10-30T15:27:36.712Z,99971.91
2022-10-30T15:29:41.566Z,99969.25
2022-10-30T15:31:45.354Z,99967.41
2022-10-30T15:33:50.907Z,99974.44
2022-10-30T15:35:54.342Z,99971.78
2022-10-30T15:38:00.061Z,99971.78
2022-10-30T15:40:18.534Z,99968.00
2022-10-30T15:42:23.721Z,99971.63
2022-10-30T15:44:31.821Z,99969.09
2022-10-30T15:46:35.603Z,99971.06
2022-10-30T15:48:42.419Z,99984.66
2022-10-30T15:50:54.056Z,99983.97
2022-10-30T15:52:58.110Z,99978.91
2022-10-30T15:55:06.481Z,99990.69
2022-10-30T15:58:01.708Z,99991.81
2022-10-30T15:59:53.114Z,99988.41
2022-10-30T16:01:58.747Z,99987.84
2022-10-30T16:04:03.188Z,99997.66
2022-10-30T16:06:16.866Z,99998.09
2022-10-30T16:08:24.130Z,100006.31
2022-10-30T16:10:31.416Z,100002.97
2022-10-30T16:12:36.878Z,100001.56
2022-10-30T16:14:44.019Z,100010.06
2022-10-30T16:16:51.795Z,100000.56
2022-10-30T16:19:00.896Z,99994.53
2022-10-30T16:21:08.626Z,100000.13
2022-10-30T16:23:14.202Z,100004.72
2022-10-30T16:25:19.597Z,100008.63
2022-10-30T16:27:26.072Z,100006.25
2022-10-30T16:29:31.681Z,100009.88
2022-10-30T16:31:37.830Z,100011.84
2022-10-30T16:33:44.959Z,100019.09
2022-10-30T16:35:55.713Z,100026.38
2022-10-30T16:38:02.830Z,100015.00
2022-10-30T16:40:15.060Z,100029.28
2022-10-30T16:42:22.894Z,100032.22
2022-10-30T16:44:30.558Z,100035.00
2022-10-30T16:46:39.423Z,100038.78
2022-10-30T16:48:48.354Z,100045.91
2022-10-30T16:50:53.240Z,100040.84
2022-10-30T16:53:07.874Z,100055.28
2022-10-30T16:55:18.580Z,100049.50
2022-10-30T16:57:28.164Z,100055.09
2022-10-30T16:59:39.140Z,100059.69
2022-10-30T17:01:43.144Z,100051.00
2022-10-30T17:03:50.310Z,100065.25
2022-10-30T17:06:04.893Z,100062.75
2022-10-30T17:08:31.283Z,100063.69
2022-10-30T17:10:37.672Z,100065.53
2022-10-30T17:12:41.496Z,100066.63
2022-10-30T17:14:50.046Z,100077.41
2022-10-30T17:16:56.409Z,100080.06
2022-10-30T17:19:03.831Z,100082.81
2022-10-30T17:21:12.382Z,100094.31
2022-10-30T17:23:21.084Z,100090.78
2022-10-30T17:25:36.260Z,100090.09
2022-10-30T17:27:47.455Z,100096.38
2022-10-30T17:29:51.254Z,100095.53
2022-10-30T17:32:00.200Z,100097.47
2022-10-30T17:34:18.679Z,100102.78
2022-10-30T17:36:22.253Z,100099.44
2022-10-30T17:38:26.398Z,100095.06
2022-10-30T17:40:30.577Z,100107.41
2022-10-30T17:42:34.751Z,100115.50
2022-10-30T17:44:38.693Z,100113.81
2022-10-30T17:46:44.262Z,100119.25
2022-10-30T17:48:47.922Z,100125.53
2022-10-30T17:50:53.045Z,100120.09
2022-10-30T17:52:57.188Z,100130.97
2022-10-30T17:55:03.006Z,100136.28
2022-10-30T17:57:06.763Z,100135.44
2022-10-30T17:59:10.226Z,100131.94
2022-10-30T18:01:17.446Z,100130.13
2022-10-30T18:03:21.126Z,100148.84
2022-10-30T18:05:29.155Z,100139.91
2022-10-30T18:07:34.223Z,100140.75
2022-10-30T18:09:38.179Z,100149.72
2022-10-30T18:11:41.941Z,100146.91
2022-10-30T18:13:45.668Z,100141.75
2022-10-30T18:15:55.654Z,100158.50
2022-10-30T18:17:59.604Z,100150.53
2022-10-30T18:20:03.153Z,100150.53
2022-10-30T18:22:06.663Z,100145.22
2022-10-30T18:24:16.747Z,100150.53
2022-10-30T18:26:22.983Z,100148.00
2022-10-30T18:28:26.581Z,100148.97
2022-10-30T18:30:30.271Z,100144.41
2022-10-30T18:32:34.195Z,100148.84
2022-10-30T18:34:38.077Z,100148.00
2022-10-30T18:36:41.753Z,100154.28
2022-10-30T18:38:45.364Z,100160.56
2022-10-30T18:40:51.031Z,100174.84
2022-10-30T18:42:54.804Z,100179.28
2022-10-30T18:44:58.199Z,100185.47
2022-10-30T18:47:03.324Z,100178.47
2022-10-30T18:49:07.719Z,100194.41
2022-10-30T18:51:17.331Z,100189.22
2022-10-30T18:53:21.348Z,100192.69
2022-10-30T18:55:27.272Z,100185.69
2022-10-30T18:57:32.531Z,100187.53
2022-10-30T18:59:36.436Z,100186.81
2022-10-30T19:01:40.159Z,100183.28
2022-10-30T19:03:44.879Z,100188.75
2022-10-30T19:05:50.184Z,100196.84
2022-10-30T19:07:53.952Z,100194.19
2022-10-30T19:09:59.627Z,100201.41
2022-10-30T19:12:03.441Z,100198.88
2022-10-30T19:14:13.774Z,100205.06
2022-10-30T19:16:19.217Z,100202.50
2022-10-30T19:18:25.979Z,100199.00
2022-10-30T19:20:44.052Z,100198.16
2022-10-30T19:22:53.495Z,100199.00
2022-10-30T19:24:57.246Z,100198.16
2022-10-30T19:27:00.711Z,100199.00
2022-10-30T19:29:04.777Z,100198.03
2022-10-30T19:31:15.628Z,100198.88
2022-10-30T19:33:20.710Z,100204.19
2022-10-30T19:35:27.359Z,100202.41
2022-10-30T19:37:31.151Z,100220.13
2022-10-30T19:39:35.382Z,100206.00
2022-10-30T19:41:40.245Z,100217.34
2022-10-30T19:43:44.262Z,100215.69
2022-10-30T19:45:51.278Z,100215.69
2022-10-30T19:48:02.349Z,100208.66
2022-10-30T19:50:23.173Z,100202.50
2022-10-30T19:52:29.376Z,100213.03
2022-10-30T19:54:34.896Z,100215.56
2022-10-30T19:56:39.805Z,100211.31
2022-10-30T19:58:43.945Z,100210.38
2022-10-30T20:00:47.972Z,100206.00
2022-10-30T20:02:52.715Z,100206.00
2022-10-30T20:04:57.904Z,100206.00
2022-10-30T20:07:02.744Z,100199.94
2022-10-30T20:09:07.561Z,100201.78
2022-10-30T20:11:11.555Z,100211.56
2022-10-30T20:13:15.791Z,100202.88
2022-10-30T20:15:23.983Z,100210.97
2022-10-30T20:17:29.490Z,100204.91
2022-10-30T20:19:33.386Z,100214.69
2022-10-30T20:21:49.059Z,100217.34
2022-10-30T20:23:53.756Z,100220.97
2022-10-30T20:26:01.750Z,100221.97
2022-10-30T20:28:19.846Z,100221.09
2022-10-30T20:30:24.445Z,100219.41
2022-10-30T20:32:29.796Z,100225.72
2022-10-30T20:34:33.522Z,100221.47
2022-10-30T20:36:37.278Z,100225.94
2022-10-30T20:38:42.575Z,100229.69
2022-10-30T20:40:46.934Z,100225.34
2022-10-30T20:42:50.707Z,100221.00
2022-10-30T20:44:54.562Z,100219.31
2022-10-30T20:46:58.088Z,100208.69
2022-10-30T20:49:16.760Z,100205.31
2022-10-30T20:51:22.709Z,100207.25
2022-10-30T20:53:26.368Z,100215.47
2022-10-30T20:55:31.989Z,100203.41
2022-10-30T20:59:41.636Z,100196.16
2022-10-30T21:01:46.180Z,100191.44
2022-10-30T21:03:51.219Z,100184.22
2022-10-30T21:05:58.878Z,100183.22
2022-10-30T21:08:03.441Z,100186.75
2022-10-30T21:10:09.018Z,100187.56
2022-10-30T21:12:15.179Z,100186.59
2022-10-30T21:14:19.571Z,100183.94
2022-10-30T21:16:24.093Z,100184.91
2022-10-30T21:18:28.070Z,100188.44
2022-10-30T21:20:32.439Z,100183.13
2022-10-30T21:22:37.093Z,100180.34
2022-10-30T21:24:41.279Z,100187.31
2022-10-30T21:26:45.649Z,100184.78
2022-10-30T21:28:51.094Z,100182.25
2022-10-30T21:30:55.824Z,100186.00
2022-10-30T21:33:01.127Z,100186.13
2022-10-30T21:35:07.740Z,100187.09
2022-10-30T21:37:12.174Z,100188.06
2022-10-30T21:39:16.485Z,100182.03
2022-10-30T21:41:22.745Z,100190.00
2022-10-30T21:43:27.361Z,100181.91
2022-10-30T21:45:32.797Z,100187.22
2022-10-30T21:47:37.324Z,100188.91
2022-10-30T21:49:48.907Z,100186.13
2022-10-30T21:51:53.423Z,100186.13
2022-10-30T21:53:58.250Z,100183.34
2022-10-30T21:56:06.439Z,100174.56
2022-10-30T21:58:10.552Z,100176.13
2022-10-30T22:00:16.589Z,100189.13
2022-10-30T22:02:22.376Z,100186.34
2022-10-30T22:04:26.525Z,100175.72
2022-10-30T22:06:31.719Z,100172.25
2022-10-30T22:08:36.437Z,100176.69
2022-10-30T22:10:41.052Z,100172.38
2022-10-30T22:12:46.661Z,100162.84
2022-10-30T22:14:51.502Z,100161.97
2022-10-30T22:16:55.366Z,100158.50
2022-10-30T22:19:03.052Z,100162.09
2022-10-30T22:21:10.217Z,100167.41
2022-10-30T22:23:14.803Z,100164.75
2022-10-30T22:25:19.264Z,100165.50
2022-10-30T22:27:26.715Z,100158.38
2022-10-30T22:29:31.558Z,100160.88
2022-10-30T22:31:35.971Z,100157.28
2022-10-30T22:33:40.722Z,100173.06
2022-10-30T22:35:47.063Z,100158.84
2022-10-30T22:37:51.208Z,100154.34
2022-10-30T22:39:55.418Z,100163.91
2022-10-30T22:41:59.823Z,100169.81
2022-10-30T22:44:04.236Z,100172.34
2022-10-30T22:46:09.221Z,100172.22
2022-10-30T22:48:13.988Z,100176.44
2022-10-30T22:50:18.801Z,100173.50
2022-10-30T22:52:24.854Z,100173.38
2022-10-30T22:54:29.379Z,100183.06
2022-10-30T22:56:35.360Z,100174.84
2022-10-30T22:58:53.955Z,100177.28
2022-10-30T23:01:09.335Z,100169.19
2022-10-30T23:03:13.896Z,100165.56
2022-10-30T23:05:18.163Z,100161.09
2022-10-30T23:07:27.414Z,100154.94
2022-10-30T23:09:31.829Z,100151.41
2022-10-30T23:11:36.575Z,100152.38
2022-10-30T23:13:41.896Z,100159.66
2022-10-30T23:15:46.521Z,100155.16
2022-10-30T23:17:51.021Z,100157.81
2022-10-30T23:19:55.995Z,100141.66
2022-10-30T23:22:04.525Z,100151.16
2022-10-30T23:24:10.556Z,100149.38
2022-10-30T23:26:16.895Z,100137.88
2022-10-30T23:28:21.037Z,100142.34
2022-10-30T23:30:25.308Z,100137.19
2022-10-30T23:32:29.670Z,100136.44
2022-10-30T23:34:34.466Z,100133.09
2022-10-30T23:36:39.883Z,100140.09
2022-10-30T23:38:44.314Z,100134.91
2022-10-30T23:41:01.130Z,100138.41
2022-10-30T23:43:05.939Z,100139.22
2022-10-30T23:45:11.470Z,100134.78
2022-10-30T23:47:15.753Z,100134.78
2022-10-30T23:49:21.896Z,100135.63
2022-10-30T23:51:27.794Z,100136.56
2022-10-30T23:53:32.877Z,100131.38
2022-10-30T23:55:37.292Z,100135.00
2022-10-30T23:57:43.512Z,100147.56
2022-10-30T23:59:48.729Z,100142.50
